sensor_id;sensor_type;location;lat;lon;timestamp;pressure;altitude;pressure_sealevel;temperature;humidity
44148;BME280;29810;55.848;37.368;2023-03-15T00:02:04;98405.53;;;3.74;56.86
44148;BME280;29810;55.848;37.368;2023-03-15T00:05:06;98394.50;;;3.68;56.81
44148;BME280;29810;55.848;37.368;2023-03-15T00:08:08;98391.22;;;3.59;57.05
44148;BME280;29810;55.848;37.368;2023-03-15T00:11:14;98392.13;;;3.58;57.11
44148;BME280;29810;55.848;37.368;2023-03-15T00:14:17;98405.78;;;3.63;57.37
44148;BME280;29810;55.848;37.368;2023-03-15T00:17:19;98402.31;;;3.63;57.70
44148;BME280;29810;55.848;37.368;2023-03-15T00:20:22;98382.03;;;3.49;57.43
44148;BME280;29810;55.848;37.368;2023-03-15T00:23:24;98392.91;;;3.62;57.52
44148;BME280;29810;55.848;37.368;2023-03-15T00:26:26;98387.94;;;3.54;57.67
44148;BME280;29810;55.848;37.368;2023-03-15T00:29:28;98404.19;;;3.56;57.93
44148;BME280;29810;55.848;37.368;2023-03-15T00:32:29;98398.25;;;3.54;58.05
44148;BME280;29810;55.848;37.368;2023-03-15T00:35:32;98390.53;;;3.53;58.38
44148;BME280;29810;55.848;37.368;2023-03-15T00:38:35;98401.69;;;3.53;58.42
44148;BME280;29810;55.848;37.368;2023-03-15T00:41:37;98403.44;;;3.51;58.54
44148;BME280;29810;55.848;37.368;2023-03-15T00:44:38;98394.00;;;3.50;58.87
44148;BME280;29810;55.848;37.368;2023-03-15T00:47:40;98398.31;;;3.50;58.85
44148;BME280;29810;55.848;37.368;2023-03-15T00:50:42;98397.41;;;3.52;59.08
44148;BME280;29810;55.848;37.368;2023-03-15T00:53:45;98390.47;;;3.56;58.84
44148;BME280;29810;55.848;37.368;2023-03-15T00:56:46;98374.22;;;3.52;58.69
44148;BME280;29810;55.848;37.368;2023-03-15T00:59:48;98401.25;;;3.73;58.82
44148;BME280;29810;55.848;37.368;2023-03-15T01:02:50;98404.66;;;3.75;58.78
44148;BME280;29810;55.848;37.368;2023-03-15T01:05:52;98383.25;;;3.72;58.74
44148;BME280;29810;55.848;37.368;2023-03-15T01:08:54;98396.16;;;3.70;58.91
44148;BME280;29810;55.848;37.368;2023-03-15T01:11:57;98388.59;;;3.62;59.00
44148;BME280;29810;55.848;37.368;2023-03-15T01:15:00;98403.19;;;3.62;59.27
44148;BME280;29810;55.848;37.368;2023-03-15T01:18:03;98397.28;;;3.58;59.60
44148;BME280;29810;55.848;37.368;2023-03-15T01:21:09;98398.13;;;3.59;59.63
44148;BME280;29810;55.848;37.368;2023-03-15T01:24:13;98381.06;;;3.53;59.93
44148;BME280;29810;55.848;37.368;2023-03-15T01:27:15;98392.13;;;3.58;60.04
44148;BME280;29810;55.848;37.368;2023-03-15T01:30:18;98396.38;;;3.59;59.95
44148;BME280;29810;55.848;37.368;2023-03-15T01:33:20;98381.00;;;3.56;59.96
44148;BME280;29810;55.848;37.368;2023-03-15T01:36:22;98383.44;;;3.62;60.04
44148;BME280;29810;55.848;37.368;2023-03-15T01:39:28;98383.44;;;3.62;60.10
44148;BME280;29810;55.848;37.368;2023-03-15T01:42:31;98385.19;;;3.60;60.07
44148;BME280;29810;55.848;37.368;2023-03-15T01:49:10;98385.56;;;3.83;60.41
44148;BME280;29810;55.848;37.368;2023-03-15T01:52:17;98378.31;;;3.98;60.08
44148;BME280;29810;55.848;37.368;2023-03-15T01:55:22;98391.22;;;3.98;59.91
44148;BME280;29810;55.848;37.368;2023-03-15T01:58:28;98379.06;;;4.04;59.79
44148;BME280;29810;55.848;37.368;2023-03-15T02:01:33;98386.66;;;4.10;59.75
44148;BME280;29810;55.848;37.368;2023-03-15T02:04:41;98388.28;;;4.14;59.59
44148;BME280;29810;55.848;37.368;2023-03-15T02:07:47;98385.78;;;4.11;59.62
44148;BME280;29810;55.848;37.368;2023-03-15T02:10:54;98396.25;;;4.05;59.96
44148;BME280;29810;55.848;37.368;2023-03-15T02:13:59;98394.72;;;3.97;60.04
44148;BME280;29810;55.848;37.368;2023-03-15T02:17:03;98402.66;;;3.87;60.35
44148;BME280;29810;55.848;37.368;2023-03-15T02:20:31;98402.03;;;3.77;60.78
44148;BME280;29810;55.848;37.368;2023-03-15T02:23:35;98397.72;;;3.77;61.32
44148;BME280;29810;55.848;37.368;2023-03-15T02:26:50;98411.62;;;3.70;61.38
44148;BME280;29810;55.848;37.368;2023-03-15T02:29:53;98404.66;;;3.75;61.59
44148;BME280;29810;55.848;37.368;2023-03-15T02:32:57;98400.53;;;3.67;61.41
44148;BME280;29810;55.848;37.368;2023-03-15T02:36:27;98405.56;;;3.73;61.61
44148;BME280;29810;55.848;37.368;2023-03-15T02:39:29;98399.53;;;3.74;61.90
44148;BME280;29810;55.848;37.368;2023-03-15T02:42:30;98395.44;;;3.65;61.68
44148;BME280;29810;55.848;37.368;2023-03-15T02:45:33;98401.53;;;3.59;62.00
44148;BME280;29810;55.848;37.368;2023-03-15T02:48:37;98402.44;;;3.58;62.21
44148;BME280;29810;55.848;37.368;2023-03-15T02:51:39;98395.63;;;3.56;62.57
44148;BME280;29810;55.848;37.368;2023-03-15T02:54:41;98403.38;;;3.56;62.62
44148;BME280;29810;55.848;37.368;2023-03-15T02:57:46;98401.63;;;3.56;62.64
44148;BME280;29810;55.848;37.368;2023-03-15T03:00:51;98393.16;;;3.50;62.73
44148;BME280;29810;55.848;37.368;2023-03-15T03:03:53;98399.91;;;3.55;63.16
44148;BME280;29810;55.848;37.368;2023-03-15T03:06:55;98395.59;;;3.57;62.84
44148;BME280;29810;55.848;37.368;2023-03-15T03:09:57;98398.19;;;3.56;62.99
44148;BME280;29810;55.848;37.368;2023-03-15T03:12:59;98404.16;;;3.58;62.97
44148;BME280;29810;55.848;37.368;2023-03-15T03:16:01;98399.91;;;3.55;63.31
44148;BME280;29810;55.848;37.368;2023-03-15T03:19:04;98409.44;;;3.53;63.30
44148;BME280;29810;55.848;37.368;2023-03-15T03:22:06;98412.88;;;3.52;63.63
44148;BME280;29810;55.848;37.368;2023-03-15T03:25:08;98410.34;;;3.51;63.40
44148;BME280;29810;55.848;37.368;2023-03-15T03:28:12;98414.63;;;3.50;63.31
44148;BME280;29810;55.848;37.368;2023-03-15T03:31:27;98422.34;;;3.52;63.44
44148;BME280;29810;55.848;37.368;2023-03-15T03:34:29;98416.34;;;3.51;63.77
44148;BME280;29810;55.848;37.368;2023-03-15T03:37:32;98429.25;;;3.50;63.72
44148;BME280;29810;55.848;37.368;2023-03-15T03:40:34;98428.41;;;3.49;63.59
44148;BME280;29810;55.848;37.368;2023-03-15T03:43:37;98432.66;;;3.52;63.58
44148;BME280;29810;55.848;37.368;2023-03-15T03:46:39;98429.28;;;3.48;63.90
44148;BME280;29810;55.848;37.368;2023-03-15T03:49:41;98437.78;;;3.53;63.74
44148;BME280;29810;55.848;37.368;2023-03-15T03:52:42;98422.44;;;3.47;63.57
44148;BME280;29810;55.848;37.368;2023-03-15T03:55:45;98436.84;;;3.57;63.64
44148;BME280;29810;55.848;37.368;2023-03-15T03:58:50;98430.87;;;3.54;63.41
44148;BME280;29810;55.848;37.368;2023-03-15T04:01:53;98427.50;;;3.50;63.36
44148;BME280;29810;55.848;37.368;2023-03-15T04:04:55;98435.19;;;3.53;63.52
44148;BME280;29810;55.848;37.368;2023-03-15T04:07:57;98424.81;;;3.56;63.55
44148;BME280;29810;55.848;37.368;2023-03-15T04:11:00;98429.88;;;3.61;63.39
44148;BME280;29810;55.848;37.368;2023-03-15T04:14:05;98400.81;;;3.53;63.37
44148;BME280;29810;55.848;37.368;2023-03-15T04:17:07;98429.66;;;3.72;62.89
44148;BME280;29810;55.848;37.368;2023-03-15T04:20:09;98420.84;;;3.82;62.75
44148;BME280;29810;55.848;37.368;2023-03-15T04:23:15;98414.63;;;3.89;62.25
44148;BME280;29810;55.848;37.368;2023-03-15T04:26:19;98404.09;;;4.00;62.27
44148;BME280;29810;55.848;37.368;2023-03-15T04:29:22;98420.16;;;4.11;61.68
44148;BME280;29810;55.848;37.368;2023-03-15T04:32:24;98420.75;;;4.23;61.37
44148;BME280;29810;55.848;37.368;2023-03-15T04:35:28;98422.25;;;4.33;60.85
44148;BME280;29810;55.848;37.368;2023-03-15T04:38:32;98428.19;;;4.37;60.63
44148;BME280;29810;55.848;37.368;2023-03-15T04:41:36;98433.91;;;4.50;60.23
44148;BME280;29810;55.848;37.368;2023-03-15T04:44:39;98430.44;;;4.49;59.97
44148;BME280;29810;55.848;37.368;2023-03-15T04:47:41;98431.19;;;4.54;59.93
44148;BME280;29810;55.848;37.368;2023-03-15T04:50:44;98442.25;;;4.59;59.73
44148;BME280;29810;55.848;37.368;2023-03-15T04:53:46;98448.03;;;4.69;59.76
44148;BME280;29810;55.848;37.368;2023-03-15T04:56:47;98448.66;;;4.79;59.36
44148;BME280;29810;55.848;37.368;2023-03-15T04:59:49;98452.84;;;4.83;59.28
44148;BME280;29810;55.848;37.368;2023-03-15T05:02:52;98463.94;;;4.87;58.99
44148;BME280;29810;55.848;37.368;2023-03-15T05:05:55;98465.59;;;4.89;58.65
44148;BME280;29810;55.848;37.368;2023-03-15T05:08:57;98474.25;;;4.88;58.59
44148;BME280;29810;55.848;37.368;2023-03-15T05:11:59;98468.97;;;4.93;58.37
44148;BME280;29810;55.848;37.368;2023-03-15T05:15:02;98480.28;;;4.87;58.49
44148;BME280;29810;55.848;37.368;2023-03-15T05:18:08;98474.97;;;4.93;58.73
44148;BME280;29810;55.848;37.368;2023-03-15T05:21:10;98475.50;;;5.06;58.13
44148;BME280;29810;55.848;37.368;2023-03-15T05:24:13;98479.13;;;4.99;58.05
44148;BME280;29810;55.848;37.368;2023-03-15T05:27:15;98482.22;;;5.12;58.09
44148;BME280;29810;55.848;37.368;2023-03-15T05:30:18;98485.44;;;5.22;57.54
44148;BME280;29810;55.848;37.368;2023-03-15T05:33:21;98475.88;;;5.24;57.12
44148;BME280;29810;55.848;37.368;2023-03-15T05:36:23;98484.31;;;5.30;56.77
44148;BME280;29810;55.848;37.368;2023-03-15T05:39:31;98484.31;;;5.32;56.00
44148;BME280;29810;55.848;37.368;2023-03-15T05:42:35;98482.56;;;5.33;56.61
44148;BME280;29810;55.848;37.368;2023-03-15T05:45:37;98490.69;;;5.50;56.35
44148;BME280;29810;55.848;37.368;2023-03-15T05:48:40;98494.91;;;5.53;55.43
44148;BME280;29810;55.848;37.368;2023-03-15T05:51:43;98497.66;;;5.48;55.00
44148;BME280;29810;55.848;37.368;2023-03-15T05:54:46;98499.94;;;5.59;55.19
44148;BME280;29810;55.848;37.368;2023-03-15T05:57:48;98502.19;;;5.70;55.13
44148;BME280;29810;55.848;37.368;2023-03-15T06:00:51;98496.81;;;5.77;54.67
44148;BME280;29810;55.848;37.368;2023-03-15T06:03:54;98508.75;;;5.83;54.18
44148;BME280;29810;55.848;37.368;2023-03-15T06:06:59;98506.06;;;5.86;54.47
44148;BME280;29810;55.848;37.368;2023-03-15T06:10:06;98515.34;;;5.93;53.53
44148;BME280;29810;55.848;37.368;2023-03-15T06:13:07;98508.31;;;5.97;53.54
44148;BME280;29810;55.848;37.368;2023-03-15T06:16:12;98514.87;;;6.10;53.44
44148;BME280;29810;55.848;37.368;2023-03-15T06:19:15;98506.06;;;6.16;53.14
44148;BME280;29810;55.848;37.368;2023-03-15T06:22:17;98505.50;;;6.35;52.75
44148;BME280;29810;55.848;37.368;2023-03-15T06:25:26;98514.25;;;6.59;52.40
44148;BME280;29810;55.848;37.368;2023-03-15T06:28:28;98521.69;;;6.70;51.20
44148;BME280;29810;55.848;37.368;2023-03-15T06:31:30;98509.63;;;6.69;51.45
44148;BME280;29810;55.848;37.368;2023-03-15T06:34:35;98517.16;;;7.02;51.20
44148;BME280;29810;55.848;37.368;2023-03-15T06:37:36;98526.72;;;7.26;50.39
44148;BME280;29810;55.848;37.368;2023-03-15T06:40:43;98523.25;;;7.51;50.12
44148;BME280;29810;55.848;37.368;2023-03-15T06:43:44;98538.37;;;7.40;49.39
44148;BME280;29810;55.848;37.368;2023-03-15T06:46:49;98531.78;;;7.55;49.80
44148;BME280;29810;55.848;37.368;2023-03-15T06:49:51;98537.69;;;7.84;49.22
44148;BME280;29810;55.848;37.368;2023-03-15T06:52:56;98537.19;;;7.98;48.98
44148;BME280;29810;55.848;37.368;2023-03-15T06:55:58;98547.09;;;7.86;48.51
44148;BME280;29810;55.848;37.368;2023-03-15T06:59:00;98546.53;;;7.78;49.03
44148;BME280;29810;55.848;37.368;2023-03-15T07:02:01;98544.16;;;7.72;49.20
44148;BME280;29810;55.848;37.368;2023-03-15T07:05:03;98548.53;;;7.71;49.13
44148;BME280;29810;55.848;37.368;2023-03-15T07:08:05;98549.94;;;7.55;49.09
44148;BME280;29810;55.848;37.368;2023-03-15T07:11:11;98546.66;;;7.50;49.17
44148;BME280;29810;55.848;37.368;2023-03-15T07:14:22;98555.63;;;7.66;49.19
44148;BME280;29810;55.848;37.368;2023-03-15T07:17:24;98551.88;;;7.73;48.69
44148;BME280;29810;55.848;37.368;2023-03-15T07:20:25;98548.34;;;7.76;49.22
44148;BME280;29810;55.848;37.368;2023-03-15T07:23:28;98548.19;;;7.81;48.71
44148;BME280;29810;55.848;37.368;2023-03-15T07:26:30;98546.22;;;7.87;48.71
44148;BME280;29810;55.848;37.368;2023-03-15T07:29:31;98545.94;;;7.95;48.75
44148;BME280;29810;55.848;37.368;2023-03-15T07:32:33;98539.22;;;8.13;48.50
44148;BME280;29810;55.848;37.368;2023-03-15T07:35:35;98535.00;;;8.33;47.85
44148;BME280;29810;55.848;37.368;2023-03-15T07:38:36;98556.28;;;8.42;47.68
44148;BME280;29810;55.848;37.368;2023-03-15T07:41:39;98547.97;;;8.56;47.61
44148;BME280;29810;55.848;37.368;2023-03-15T07:44:41;98551.03;;;8.66;47.02
44148;BME280;29810;55.848;37.368;2023-03-15T07:47:43;98551.31;;;8.82;46.99
44148;BME280;29810;55.848;37.368;2023-03-15T07:50:45;98551.72;;;8.71;46.82
44148;BME280;29810;55.848;37.368;2023-03-15T07:53:46;98544.69;;;8.95;46.91
44148;BME280;29810;55.848;37.368;2023-03-15T07:56:48;98559.78;;;9.08;46.52
44148;BME280;29810;55.848;37.368;2023-03-15T07:59:50;98547.03;;;9.22;46.29
44148;BME280;29810;55.848;37.368;2023-03-15T08:02:55;98557.72;;;9.16;45.99
44148;BME280;29810;55.848;37.368;2023-03-15T08:05:57;98568.56;;;9.26;46.04
44148;BME280;29810;55.848;37.368;2023-03-15T08:08:58;98581.84;;;9.40;45.62
44148;BME280;29810;55.848;37.368;2023-03-15T08:12:02;98559.00;;;9.26;45.72
44148;BME280;29810;55.848;37.368;2023-03-15T08:15:03;98570.84;;;9.34;45.82
44148;BME280;29810;55.848;37.368;2023-03-15T08:18:06;98566.50;;;9.55;45.39
44148;BME280;29810;55.848;37.368;2023-03-15T08:21:07;98579.19;;;9.63;45.00
44148;BME280;29810;55.848;37.368;2023-03-15T08:24:10;98582.81;;;9.58;44.82
44148;BME280;29810;55.848;37.368;2023-03-15T08:27:11;98572.72;;;9.71;44.38
44148;BME280;29810;55.848;37.368;2023-03-15T08:30:14;98565.09;;;9.67;44.91
44148;BME280;29810;55.848;37.368;2023-03-15T08:33:16;98575.22;;;9.33;45.11
44148;BME280;29810;55.848;37.368;2023-03-15T08:36:18;98576.69;;;9.18;45.63
44148;BME280;29810;55.848;37.368;2023-03-15T08:39:19;98584.34;;;9.01;46.18
44148;BME280;29810;55.848;37.368;2023-03-15T08:42:24;98584.69;;;9.14;46.31
44148;BME280;29810;55.848;37.368;2023-03-15T08:45:26;98586.72;;;9.27;46.10
44148;BME280;29810;55.848;37.368;2023-03-15T08:48:30;98575.84;;;9.18;46.24
44148;BME280;29810;55.848;37.368;2023-03-15T08:51:31;98574.41;;;9.10;46.49
44148;BME280;29810;55.848;37.368;2023-03-15T08:54:34;98579.38;;;8.94;46.60
44148;BME280;29810;55.848;37.368;2023-03-15T08:57:35;98579.91;;;8.82;46.71
44148;BME280;29810;55.848;37.368;2023-03-15T09:00:37;98580.72;;;8.83;46.92
44148;BME280;29810;55.848;37.368;2023-03-15T09:03:39;98576.06;;;8.91;47.00
44148;BME280;29810;55.848;37.368;2023-03-15T09:06:43;98572.62;;;8.90;46.97
44148;BME280;29810;55.848;37.368;2023-03-15T09:09:44;98577.75;;;8.92;47.17
44148;BME280;29810;55.848;37.368;2023-03-15T09:12:51;98566.66;;;9.09;47.00
44148;BME280;29810;55.848;37.368;2023-03-15T09:15:55;98572.38;;;9.17;46.82
44148;BME280;29810;55.848;37.368;2023-03-15T09:18:57;98573.56;;;9.10;46.70
44148;BME280;29810;55.848;37.368;2023-03-15T09:21:58;98570.56;;;8.99;47.37
44148;BME280;29810;55.848;37.368;2023-03-15T09:25:00;98571.34;;;9.01;47.60
44148;BME280;29810;55.848;37.368;2023-03-15T09:28:03;98590.47;;;8.77;48.19
44148;BME280;29810;55.848;37.368;2023-03-15T09:31:05;98580.72;;;8.83;48.31
44148;BME280;29810;55.848;37.368;2023-03-15T09:34:07;98585.97;;;9.03;48.10
44148;BME280;29810;55.848;37.368;2023-03-15T09:37:10;98582.22;;;9.10;47.92
44148;BME280;29810;55.848;37.368;2023-03-15T09:40:32;98590.59;;;8.97;48.24
44148;BME280;29810;55.848;37.368;2023-03-15T09:47:19;98598.41;;;8.95;48.60
44148;BME280;29810;55.848;37.368;2023-03-15T09:50:28;98594.38;;;9.10;49.09
44148;BME280;29810;55.848;37.368;2023-03-15T09:53:46;98602.09;;;9.11;48.98
44148;BME280;29810;55.848;37.368;2023-03-15T09:56:59;98594.44;;;9.29;48.79
44148;BME280;29810;55.848;37.368;2023-03-15T10:00:05;98597.13;;;9.69;48.07
44148;BME280;29810;55.848;37.368;2023-03-15T10:03:20;98592.34;;;9.99;47.35
44148;BME280;29810;55.848;37.368;2023-03-15T10:06:24;98597.53;;;10.39;46.73
44148;BME280;29810;55.848;37.368;2023-03-15T10:09:30;98595.34;;;10.49;46.48
44148;BME280;29810;55.848;37.368;2023-03-15T10:12:37;98592.47;;;10.36;46.21
44148;BME280;29810;55.848;37.368;2023-03-15T10:16:09;98601.31;;;10.32;46.58
44148;BME280;29810;55.848;37.368;2023-03-15T10:19:30;98587.81;;;10.62;46.48
44148;BME280;29810;55.848;37.368;2023-03-15T10:22:46;98589.50;;;10.63;46.24
44148;BME280;29810;55.848;37.368;2023-03-15T10:25:50;98594.16;;;10.56;46.38
44148;BME280;29810;55.848;37.368;2023-03-15T10:28:54;98599.50;;;10.53;46.34
44148;BME280;29810;55.848;37.368;2023-03-15T10:31:55;98584.44;;;10.40;46.68
44148;BME280;29810;55.848;37.368;2023-03-15T10:34:59;98593.56;;;10.30;46.81
44148;BME280;29810;55.848;37.368;2023-03-15T10:38:24;98601.25;;;10.33;46.72
44148;BME280;29810;55.848;37.368;2023-03-15T10:41:38;98586.72;;;10.48;47.11
44148;BME280;29810;55.848;37.368;2023-03-15T10:44:40;98595.72;;;10.41;46.58
44148;BME280;29810;55.848;37.368;2023-03-15T10:47:42;98596.97;;;10.51;46.84
44148;BME280;29810;55.848;37.368;2023-03-15T10:50:44;98596.25;;;10.67;46.57
44148;BME280;29810;55.848;37.368;2023-03-15T10:54:03;98597.87;;;10.69;46.18
44148;BME280;29810;55.848;37.368;2023-03-15T10:57:12;98581.00;;;10.76;46.73
44148;BME280;29810;55.848;37.368;2023-03-15T11:03:33;98588.53;;;11.02;46.17
44148;BME280;29810;55.848;37.368;2023-03-15T11:06:49;98566.84;;;10.82;45.51
44148;BME280;29810;55.848;37.368;2023-03-15T11:09:58;98569.84;;;10.92;46.23
44148;BME280;29810;55.848;37.368;2023-03-15T11:13:09;98585.41;;;10.93;45.95
44148;BME280;29810;55.848;37.368;2023-03-15T11:19:17;98581.56;;;10.83;46.20
44148;BME280;29810;55.848;37.368;2023-03-15T11:22:20;98573.38;;;10.91;46.24
44148;BME280;29810;55.848;37.368;2023-03-15T11:25:27;98577.50;;;10.77;46.36
44148;BME280;29810;55.848;37.368;2023-03-15T11:28:35;98576.94;;;10.71;46.55
44148;BME280;29810;55.848;37.368;2023-03-15T11:31:38;98584.53;;;10.75;46.54
44148;BME280;29810;55.848;37.368;2023-03-15T11:38:15;98564.97;;;10.67;47.33
44148;BME280;29810;55.848;37.368;2023-03-15T11:41:43;98564.00;;;10.50;47.10
44148;BME280;29810;55.848;37.368;2023-03-15T11:44:48;98569.31;;;10.85;47.19
44148;BME280;29810;55.848;37.368;2023-03-15T11:48:03;98568.78;;;10.96;46.55
44148;BME280;29810;55.848;37.368;2023-03-15T11:51:10;98565.09;;;11.00;46.19
44148;BME280;29810;55.848;37.368;2023-03-15T11:54:13;98569.13;;;10.71;46.55
44148;BME280;29810;55.848;37.368;2023-03-15T12:03:44;98556.25;;;10.68;46.81
44148;BME280;29810;55.848;37.368;2023-03-15T12:06:54;98556.53;;;10.62;46.89
44148;BME280;29810;55.848;37.368;2023-03-15T12:13:15;98564.62;;;10.74;46.93
44148;BME280;29810;55.848;37.368;2023-03-15T12:16:22;98568.94;;;10.56;46.98
44148;BME280;29810;55.848;37.368;2023-03-15T12:19:24;98572.66;;;10.70;47.07
44148;BME280;29810;55.848;37.368;2023-03-15T12:22:31;98572.81;;;10.67;46.87
44148;BME280;29810;55.848;37.368;2023-03-15T12:25:36;98564.28;;;10.44;47.47
44148;BME280;29810;55.848;37.368;2023-03-15T12:28:50;98583.28;;;10.27;47.99
44148;BME280;29810;55.848;37.368;2023-03-15T12:32:03;98578.34;;;10.02;48.94
44148;BME280;29810;55.848;37.368;2023-03-15T12:35:16;98571.72;;;9.94;48.93
44148;BME280;29810;55.848;37.368;2023-03-15T12:38:23;98574.78;;;9.84;49.46
44148;BME280;29810;55.848;37.368;2023-03-15T12:41:38;98569.66;;;9.82;49.36
44148;BME280;29810;55.848;37.368;2023-03-15T12:44:44;98567.34;;;9.95;49.50
44148;BME280;29810;55.848;37.368;2023-03-15T12:50:53;98579.38;;;9.58;49.74
44148;BME280;29810;55.848;37.368;2023-03-15T12:53:55;98580.88;;;9.43;50.30
44148;BME280;29810;55.848;37.368;2023-03-15T12:57:03;98575.53;;;9.46;50.25
44148;BME280;29810;55.848;37.368;2023-03-15T13:03:35;98578.84;;;9.50;50.70
44148;BME280;29810;55.848;37.368;2023-03-15T13:07:19;98534.69;;;9.27;50.84
44148;BME280;29810;55.848;37.368;2023-03-15T13:14:42;98583.25;;;9.68;50.25
44148;BME280;29810;55.848;37.368;2023-03-15T13:21:27;98589.31;;;9.89;49.91
44148;BME280;29810;55.848;37.368;2023-03-15T13:27:58;98583.06;;;9.32;51.16
44148;BME280;29810;55.848;37.368;2023-03-15T13:31:26;98579.22;;;9.20;51.62
44148;BME280;29810;55.848;37.368;2023-03-15T13:34:46;98574.88;;;9.20;51.77
44148;BME280;29810;55.848;37.368;2023-03-15T13:38:12;98583.25;;;9.06;51.58
44148;BME280;29810;55.848;37.368;2023-03-15T13:41:39;98576.37;;;8.83;52.36
44148;BME280;29810;55.848;37.368;2023-03-15T13:45:13;98575.47;;;8.62;52.65
44148;BME280;29810;55.848;37.368;2023-03-15T13:48:34;98584.16;;;8.61;53.15
44148;BME280;29810;55.848;37.368;2023-03-15T13:51:42;98578.81;;;8.42;53.57
44148;BME280;29810;55.848;37.368;2023-03-15T13:55:01;98584.72;;;8.23;53.69
44148;BME280;29810;55.848;37.368;2023-03-15T13:58:14;98590.47;;;8.08;54.08
44148;BME280;29810;55.848;37.368;2023-03-15T14:01:27;98599.28;;;8.04;54.36
44148;BME280;29810;55.848;37.368;2023-03-15T14:04:42;98592.66;;;7.95;54.76
44148;BME280;29810;55.848;37.368;2023-03-15T14:11:16;98595.56;;;7.62;56.04
44148;BME280;29810;55.848;37.368;2023-03-15T14:14:28;98600.38;;;7.48;56.30
44148;BME280;29810;55.848;37.368;2023-03-15T14:17:53;98602.72;;;7.28;56.81
44148;BME280;29810;55.848;37.368;2023-03-15T14:21:14;98598.59;;;7.23;57.52
44148;BME280;29810;55.848;37.368;2023-03-15T14:24:35;98602.47;;;7.09;58.01
44148;BME280;29810;55.848;37.368;2023-03-15T14:27:45;98609.53;;;7.04;57.77
44148;BME280;29810;55.848;37.368;2023-03-15T14:30:58;98612.00;;;7.09;58.11
44148;BME280;29810;55.848;37.368;2023-03-15T14:34:19;98611.06;;;7.11;58.05
44148;BME280;29810;55.848;37.368;2023-03-15T14:40:40;98612.69;;;7.14;57.92
44148;BME280;29810;55.848;37.368;2023-03-15T14:43:55;98610.28;;;7.08;58.12
44148;BME280;29810;55.848;37.368;2023-03-15T14:47:15;98620.78;;;7.05;58.24
44148;BME280;29810;55.848;37.368;2023-03-15T14:50:27;98618.19;;;7.05;58.69
44148;BME280;29810;55.848;37.368;2023-03-15T14:53:35;98615.13;;;6.92;58.77
44148;BME280;29810;55.848;37.368;2023-03-15T14:56:48;98617.97;;;6.84;58.85
44148;BME280;29810;55.848;37.368;2023-03-15T15:00:02;98603.63;;;6.72;58.89
44148;BME280;29810;55.848;37.368;2023-03-15T15:06:50;98607.19;;;6.70;59.67
44148;BME280;29810;55.848;37.368;2023-03-15T15:09:52;98597.97;;;6.59;59.98
44148;BME280;29810;55.848;37.368;2023-03-15T15:16:25;98606.16;;;6.45;60.33
44148;BME280;29810;55.848;37.368;2023-03-15T15:19:27;98622.06;;;6.33;60.20
44148;BME280;29810;55.848;37.368;2023-03-15T15:22:29;98623.19;;;6.24;60.35
44148;BME280;29810;55.848;37.368;2023-03-15T15:25:30;98615.69;;;6.15;60.79
44148;BME280;29810;55.848;37.368;2023-03-15T15:28:33;98610.00;;;6.02;61.04
44148;BME280;29810;55.848;37.368;2023-03-15T15:31:35;98610.97;;;5.98;61.29
44148;BME280;29810;55.848;37.368;2023-03-15T15:34:37;98619.78;;;5.91;61.58
44148;BME280;29810;55.848;37.368;2023-03-15T15:37:39;98612.13;;;5.86;61.62
44148;BME280;29810;55.848;37.368;2023-03-15T15:40:41;98630.44;;;5.78;62.49
44148;BME280;29810;55.848;37.368;2023-03-15T15:43:43;98627.09;;;5.75;62.25
44148;BME280;29810;55.848;37.368;2023-03-15T15:46:44;98622.09;;;5.69;62.45
44148;BME280;29810;55.848;37.368;2023-03-15T15:49:46;98620.50;;;5.63;62.47
44148;BME280;29810;55.848;37.368;2023-03-15T15:52:51;98624.09;;;5.57;62.77
44148;BME280;29810;55.848;37.368;2023-03-15T15:55:53;98623.38;;;5.52;63.40
44148;BME280;29810;55.848;37.368;2023-03-15T15:58:54;98624.34;;;5.48;62.98
44148;BME280;29810;55.848;37.368;2023-03-15T16:01:57;98626.09;;;5.46;63.13
44148;BME280;29810;55.848;37.368;2023-03-15T16:05:00;98613.37;;;5.38;63.28
44148;BME280;29810;55.848;37.368;2023-03-15T16:08:05;98616.97;;;5.33;63.53
44148;BME280;29810;55.848;37.368;2023-03-15T16:11:10;98623.88;;;5.32;63.45
44148;BME280;29810;55.848;37.368;2023-03-15T16:14:15;98624.00;;;5.27;63.82
44148;BME280;29810;55.848;37.368;2023-03-15T16:17:21;98619.97;;;5.16;63.65
44148;BME280;29810;55.848;37.368;2023-03-15T16:20:23;98656.06;;;5.20;63.83
44148;BME280;29810;55.848;37.368;2023-03-15T16:23:25;98652.75;;;5.13;63.52
44148;BME280;29810;55.848;37.368;2023-03-15T16:26:27;98652.97;;;5.04;63.53
44148;BME280;29810;55.848;37.368;2023-03-15T16:29:42;98654.78;;;5.01;63.38
44148;BME280;29810;55.848;37.368;2023-03-15T16:32:48;98668.63;;;4.96;63.50
44148;BME280;29810;55.848;37.368;2023-03-15T16:35:50;98531.97;;;4.12;63.08
44148;BME280;29810;55.848;37.368;2023-03-15T16:38:54;98651.69;;;4.85;62.67
44148;BME280;29810;55.848;37.368;2023-03-15T16:41:56;98671.84;;;5.08;62.48
44148;BME280;29810;55.848;37.368;2023-03-15T16:44:58;98679.44;;;5.14;61.86
44148;BME280;29810;55.848;37.368;2023-03-15T16:48:00;98677.63;;;5.19;61.57
44148;BME280;29810;55.848;37.368;2023-03-15T16:51:01;98687.09;;;5.19;61.49
44148;BME280;29810;55.848;37.368;2023-03-15T16:54:06;98698.28;;;5.19;61.34
44148;BME280;29810;55.848;37.368;2023-03-15T16:57:20;98688.75;;;5.21;61.25
44148;BME280;29810;55.848;37.368;2023-03-15T17:00:26;98676.16;;;5.07;61.19
44148;BME280;29810;55.848;37.368;2023-03-15T17:03:32;98697.47;;;5.17;61.29
44148;BME280;29810;55.848;37.368;2023-03-15T17:06:38;98704.25;;;5.21;61.04
44148;BME280;29810;55.848;37.368;2023-03-15T17:09:41;98698.19;;;5.22;61.15
44148;BME280;29810;55.848;37.368;2023-03-15T17:12:44;98693.03;;;5.22;60.88
44148;BME280;29810;55.848;37.368;2023-03-15T17:15:46;98687.91;;;5.21;60.88
44148;BME280;29810;55.848;37.368;2023-03-15T17:18:47;98607.19;;;4.72;60.63
44148;BME280;29810;55.848;37.368;2023-03-15T17:21:50;98610.62;;;4.74;60.65